createdAt,value
2018-12-02T00:00:37.019Z,93.97
2018-12-02T00:03:10.161Z,101.67
2018-12-02T00:05:40.364Z,99.00
2018-12-02T00:08:10.179Z,91.10
2018-12-02T00:10:40.087Z,99.17
2018-12-02T00:13:10.017Z,98.33
2018-12-02T00:15:41.240Z,98.23
2018-12-02T00:18:13.200Z,102.87
2018-12-02T00:20:43.209Z,100.80
2018-12-02T00:23:13.068Z,92.70
2018-12-02T00:25:43.656Z,99.77
2018-12-02T00:28:13.479Z,98.97
2018-12-02T00:30:43.607Z,96.57
2018-12-02T00:33:13.360Z,94.80
2018-12-02T00:35:43.625Z,104.23
2018-12-02T00:38:14.205Z,97.47
2018-12-02T00:40:44.002Z,94.40
2018-12-02T00:43:13.803Z,93.33
2018-12-02T00:45:44.095Z,91.40
2018-12-02T00:48:15.376Z,93.83
2018-12-02T00:50:45.221Z,94.27
2018-12-02T00:53:16.165Z,92.53
2018-12-02T00:55:45.988Z,93.23
2018-12-02T00:58:15.886Z,90.00
2018-12-02T01:00:46.512Z,93.03
2018-12-02T01:03:16.462Z,93.13
2018-12-02T01:05:47.390Z,88.30
2018-12-02T01:08:17.969Z,89.40
2018-12-02T01:10:48.043Z,95.23
2018-12-02T01:13:18.163Z,95.77
2018-12-02T01:15:48.715Z,95.00
2018-12-02T01:18:18.772Z,96.10
2018-12-02T01:20:48.603Z,90.87
2018-12-02T01:23:18.642Z,89.63
2018-12-02T01:25:48.769Z,88.40
2018-12-02T01:28:18.971Z,88.27
2018-12-02T01:30:49.450Z,93.40
2018-12-02T01:33:21.519Z,98.77
2018-12-02T01:35:52.419Z,84.43
2018-12-02T01:38:22.562Z,91.93
2018-12-02T01:40:52.540Z,92.13
2018-12-02T01:43:22.336Z,87.90
2018-12-02T01:45:52.205Z,99.93
2018-12-02T01:48:22.129Z,93.63
2018-12-02T01:50:51.999Z,88.63
2018-12-02T01:53:21.832Z,92.07
2018-12-02T01:55:51.644Z,88.73
2018-12-02T01:58:21.390Z,91.13
2018-12-02T02:00:51.174Z,94.53
2018-12-02T02:03:20.989Z,102.67
2018-12-02T02:05:51.061Z,109.27
2018-12-02T02:08:20.932Z,99.70
2018-12-02T02:10:50.756Z,97.50
2018-12-02T02:13:20.565Z,95.47
2018-12-02T02:15:50.429Z,93.50
2018-12-02T02:18:20.434Z,95.50
2018-12-02T02:20:50.289Z,92.17
2018-12-02T02:23:21.425Z,94.37
2018-12-02T02:25:51.212Z,86.13
2018-12-02T02:28:21.092Z,97.63
2018-12-02T02:30:51.100Z,90.00
2018-12-02T02:33:20.846Z,93.87
2018-12-02T02:35:51.584Z,87.23
2018-12-02T02:38:22.021Z,94.53
2018-12-02T02:40:52.776Z,111.13
2018-12-02T02:43:23.170Z,96.67
2018-12-02T02:45:53.026Z,98.87
2018-12-02T02:48:23.280Z,94.73
2018-12-02T02:50:53.972Z,88.33
2018-12-02T02:53:24.421Z,93.90
2018-12-02T02:55:55.603Z,95.60
2018-12-02T02:58:25.454Z,104.03
2018-12-02T03:00:56.055Z,97.90
2018-12-02T03:03:26.651Z,88.00
2018-12-02T03:05:56.336Z,99.77
2018-12-02T03:08:26.754Z,106.10
2018-12-02T03:10:58.135Z,112.07
2018-12-02T03:13:28.991Z,104.90
2018-12-02T03:15:59.117Z,92.47
2018-12-02T03:18:29.155Z,97.77
2018-12-02T03:20:58.998Z,106.13
2018-12-02T03:23:28.855Z,95.63
2018-12-02T03:25:58.646Z,102.33
2018-12-02T03:28:28.511Z,122.77
2018-12-02T03:30:58.395Z,116.10
2018-12-02T03:33:28.202Z,103.17
2018-12-02T03:35:58.053Z,112.07
2018-12-02T03:38:28.784Z,105.60
2018-12-02T03:40:58.627Z,113.43
2018-12-02T03:43:28.706Z,114.03
2018-12-02T03:45:58.559Z,110.17
2018-12-02T03:48:28.426Z,112.77
2018-12-02T03:50:58.263Z,112.17
2018-12-02T03:53:28.201Z,113.27
2018-12-02T03:55:58.203Z,123.50
2018-12-02T03:58:28.005Z,114.30
2018-12-02T04:00:57.878Z,113.90
2018-12-02T04:03:27.947Z,112.33
2018-12-02T04:05:57.760Z,102.90
2018-12-02T04:08:27.586Z,97.03
2018-12-02T04:10:57.978Z,97.37
2018-12-02T04:13:28.109Z,100.63
2018-12-02T04:15:58.416Z,98.20
2018-12-02T04:18:28.525Z,96.90
2018-12-02T04:20:58.340Z,92.97
2018-12-02T04:23:28.559Z,92.37
2018-12-02T04:25:59.220Z,95.73
2018-12-02T04:28:29.038Z,92.53
2018-12-02T04:30:59.228Z,92.50
2018-12-02T04:33:29.881Z,97.40
2018-12-02T04:36:00.325Z,100.83
2018-12-02T04:38:30.468Z,103.13
2018-12-02T04:41:00.467Z,99.90
2018-12-02T04:43:31.371Z,102.93
2018-12-02T04:46:01.582Z,94.23
2018-12-02T04:48:31.622Z,97.67
2018-12-02T04:51:01.422Z,101.33
2018-12-02T04:53:31.703Z,96.30
2018-12-02T04:56:01.429Z,95.10
2018-12-02T04:58:31.182Z,95.43
2018-12-02T05:01:00.905Z,92.87
2018-12-02T05:03:31.338Z,93.80
2018-12-02T05:06:02.085Z,96.07
2018-12-02T05:08:32.521Z,91.73
2018-12-02T05:11:02.358Z,100.57
2018-12-02T05:13:32.972Z,99.60
2018-12-02T05:16:02.972Z,96.77
2018-12-02T05:18:33.076Z,98.33
2018-12-02T05:21:03.756Z,112.07
2018-12-02T05:23:35.284Z,111.30
2018-12-02T05:26:05.687Z,106.20
2018-12-02T05:28:36.306Z,112.73
2018-12-02T05:31:07.376Z,107.23
2018-12-02T05:33:38.128Z,115.97
2018-12-02T05:36:08.470Z,111.87
2018-12-02T05:38:39.089Z,119.30
2018-12-02T05:41:08.803Z,119.90
2018-12-02T05:43:38.609Z,118.43
2018-12-02T05:46:09.341Z,130.20
2018-12-02T05:48:39.507Z,115.97
2018-12-02T05:51:09.780Z,111.27
2018-12-02T05:53:40.380Z,117.60
2018-12-02T05:56:10.450Z,118.37
2018-12-02T05:58:40.464Z,119.20
2018-12-02T06:01:10.328Z,120.10
2018-12-02T06:03:40.780Z,111.50
2018-12-02T06:06:10.612Z,115.33
2018-12-02T06:08:40.493Z,113.90
2018-12-02T06:11:10.361Z,115.83
2018-12-02T06:13:40.167Z,114.80
2018-12-02T06:16:11.080Z,128.63
2018-12-02T06:18:41.609Z,129.10
2018-12-02T06:21:11.556Z,145.13
2018-12-02T06:23:41.455Z,116.63
2018-12-02T06:26:11.286Z,122.63
2018-12-02T06:28:41.162Z,131.13
2018-12-02T06:31:11.327Z,139.23
2018-12-02T06:33:42.184Z,138.10
2018-12-02T06:36:12.363Z,136.33
2018-12-02T06:38:43.505Z,126.23
2018-12-02T06:41:14.235Z,116.97
2018-12-02T06:43:44.089Z,146.80
2018-12-02T06:46:14.539Z,121.20
2018-12-02T06:48:45.488Z,105.30
2018-12-02T06:51:15.410Z,112.63
2018-12-02T06:53:45.300Z,110.87
2018-12-02T06:56:19.228Z,108.80
2018-12-02T06:58:53.868Z,123.20
2018-12-02T07:01:34.396Z,121.30
2018-12-02T07:04:22.757Z,100.53
2018-12-02T07:06:52.871Z,111.93
2018-12-02T07:09:22.845Z,103.60
2018-12-02T07:11:52.600Z,107.80
2018-12-02T07:14:22.515Z,96.80
2018-12-02T07:16:52.636Z,99.10
2018-12-02T07:19:24.906Z,97.03
2018-12-02T07:21:59.262Z,101.20
2018-12-02T07:24:29.229Z,105.37
2018-12-02T07:26:59.731Z,99.73
2018-12-02T07:29:29.830Z,109.37
2018-12-02T07:31:59.693Z,99.40
2018-12-02T07:34:30.368Z,104.10
2018-12-02T07:37:02.262Z,97.53
2018-12-02T07:39:41.073Z,107.97
2018-12-02T07:42:10.941Z,102.03
2018-12-02T07:44:41.290Z,105.37
2018-12-02T07:47:12.088Z,103.03
2018-12-02T07:49:42.195Z,109.43
2018-12-02T07:52:12.665Z,148.57
2018-12-02T07:54:43.169Z,95.43
2018-12-02T07:57:14.040Z,96.87
2018-12-02T07:59:43.968Z,94.70
2018-12-02T08:02:14.037Z,98.33
2018-12-02T08:04:43.891Z,92.00
2018-12-02T08:07:14.794Z,103.83
2018-12-02T08:09:44.701Z,93.27
2018-12-02T08:12:14.692Z,98.43
2018-12-02T08:14:44.612Z,110.80
2018-12-02T08:17:14.716Z,94.33
2018-12-02T08:19:45.393Z,101.80
2018-12-02T08:22:15.384Z,94.90
2018-12-02T08:24:45.341Z,89.63
2018-12-02T08:27:15.189Z,95.43
2018-12-02T08:29:45.116Z,99.43
2018-12-02T08:32:15.326Z,95.47
2018-12-02T08:34:46.180Z,94.23
2018-12-02T08:37:16.672Z,129.03
2018-12-02T08:39:47.195Z,106.40
2018-12-02T08:42:17.362Z,102.13
2018-12-02T08:44:47.317Z,89.10
2018-12-02T08:47:17.474Z,89.33
2018-12-02T08:49:47.353Z,90.43
2018-12-02T08:52:17.242Z,85.30
2018-12-02T08:54:47.997Z,97.00
2018-12-02T08:57:19.186Z,89.03
2018-12-02T08:59:49.101Z,94.40
2018-12-02T09:02:19.012Z,96.63
2018-12-02T09:04:48.928Z,93.53
2018-12-02T09:07:19.144Z,90.47
2018-12-02T09:09:49.058Z,93.70
2018-12-02T09:12:18.884Z,98.97
2018-12-02T09:14:48.832Z,87.23
2018-12-02T09:17:18.785Z,88.03
2018-12-02T09:19:48.572Z,86.53
2018-12-02T09:22:19.068Z,88.13
2018-12-02T09:24:49.716Z,84.33
2018-12-02T09:27:19.940Z,95.43
2018-12-02T09:29:50.566Z,103.07
2018-12-02T09:32:20.392Z,78.57
2018-12-02T09:34:50.212Z,85.40
2018-12-02T09:37:20.148Z,91.57
2018-12-02T09:39:50.376Z,79.27
2018-12-02T09:42:20.388Z,76.13
2018-12-02T09:44:50.262Z,81.83
2018-12-02T09:47:20.546Z,77.07
2018-12-02T09:49:51.628Z,81.50
2018-12-02T09:52:21.706Z,76.93
2018-12-02T09:54:51.595Z,77.40
2018-12-02T09:57:21.532Z,79.97
2018-12-02T09:59:51.378Z,80.83
2018-12-02T10:02:21.660Z,80.17
2018-12-02T10:04:51.619Z,77.37
2018-12-02T10:07:21.489Z,84.17
2018-12-02T10:09:51.367Z,79.07
2018-12-02T10:12:21.320Z,79.60
2018-12-02T10:14:52.497Z,75.63
2018-12-02T10:17:23.264Z,74.87
2018-12-02T10:19:53.425Z,74.70
2018-12-02T10:22:23.280Z,81.30
2018-12-02T10:24:53.279Z,75.33
2018-12-02T10:27:23.230Z,71.47
2018-12-02T10:29:53.292Z,79.43
2018-12-02T10:32:23.128Z,77.27
2018-12-02T10:34:53.628Z,75.87
2018-12-02T10:37:23.496Z,79.90
2018-12-02T10:39:53.377Z,77.20
2018-12-02T10:42:23.240Z,76.40
2018-12-02T10:44:53.152Z,77.37
2018-12-02T10:47:23.581Z,80.13
2018-12-02T10:49:53.408Z,77.83
2018-12-02T10:52:23.232Z,81.03
2018-12-02T10:54:54.694Z,80.23
2018-12-02T10:57:24.674Z,77.23
2018-12-02T10:59:55.006Z,72.30
2018-12-02T11:02:25.284Z,77.13
2018-12-02T11:04:55.839Z,80.83
2018-12-02T11:07:25.755Z,76.83
2018-12-02T11:09:57.496Z,76.63
2018-12-02T11:12:27.766Z,74.63
2018-12-02T11:14:57.781Z,78.43
2018-12-02T11:17:27.806Z,82.00
2018-12-02T11:19:57.954Z,83.10
2018-12-02T11:22:28.098Z,86.77
2018-12-02T11:24:58.331Z,84.20
2018-12-02T11:27:28.153Z,80.33
2018-12-02T11:29:58.481Z,82.50
2018-12-02T11:32:28.513Z,85.67
2018-12-02T11:34:59.121Z,78.27
2018-12-02T11:37:29.308Z,84.03
2018-12-02T11:39:59.809Z,81.07
2018-12-02T11:42:30.045Z,80.97
2018-12-02T11:45:00.608Z,74.30
2018-12-02T11:47:30.616Z,80.47
2018-12-02T11:50:00.512Z,79.87
2018-12-02T11:52:30.601Z,81.17
2018-12-02T11:55:00.524Z,83.20
2018-12-02T11:57:30.725Z,81.47
2018-12-02T12:00:01.109Z,89.13
2018-12-02T12:02:31.242Z,84.50
2018-12-02T12:05:01.349Z,88.23
2018-12-02T12:07:31.557Z,88.13
2018-12-02T12:10:01.433Z,86.30
2018-12-02T12:12:31.284Z,88.27
2018-12-02T12:15:01.242Z,87.47
2018-12-02T12:17:31.157Z,88.20
2018-12-02T12:20:01.104Z,91.10
2018-12-02T12:22:31.882Z,86.37
2018-12-02T12:25:01.707Z,88.00
2018-12-02T12:27:31.840Z,94.73
2018-12-02T12:30:02.004Z,94.53
2018-12-02T12:32:31.812Z,91.93
2018-12-02T12:35:02.134Z,87.57
2018-12-02T12:37:32.086Z,92.90
2018-12-02T12:40:01.904Z,98.57
2018-12-02T12:42:31.782Z,95.10
2018-12-02T12:45:01.629Z,93.53
2018-12-02T12:47:32.036Z,94.43
2018-12-02T12:50:01.948Z,92.53
2018-12-02T12:52:31.894Z,92.33
2018-12-02T12:55:01.890Z,94.77
2018-12-02T12:57:31.751Z,91.37
2018-12-02T13:00:02.058Z,92.90
2018-12-02T13:02:32.508Z,92.27
2018-12-02T13:05:02.635Z,97.70
2018-12-02T13:07:32.569Z,95.63
2018-12-02T13:10:02.599Z,91.77
2018-12-02T13:12:32.968Z,89.10
2018-12-02T13:15:02.961Z,83.87
2018-12-02T13:17:33.001Z,89.83
2018-12-02T13:20:02.849Z,91.93
2018-12-02T13:22:33.126Z,90.13
2018-12-02T13:25:03.032Z,94.93
2018-12-02T13:27:33.351Z,96.33
2018-12-02T13:30:03.401Z,103.00
2018-12-02T13:32:33.118Z,103.67
2018-12-02T13:35:03.760Z,106.80
2018-12-02T13:37:33.910Z,101.03
2018-12-02T13:40:03.875Z,95.20
2018-12-02T13:42:34.845Z,97.97
2018-12-02T13:45:04.812Z,95.50
2018-12-02T13:47:34.972Z,94.10
2018-12-02T13:50:05.946Z,91.97
2018-12-02T13:52:35.750Z,101.33
2018-12-02T13:55:07.153Z,93.73
2018-12-02T13:57:37.626Z,97.83
2018-12-02T14:00:12.746Z,92.57
2018-12-02T14:02:43.692Z,108.17
2018-12-02T14:05:13.645Z,91.23
2018-12-02T14:07:43.714Z,93.40
2018-12-02T14:10:14.515Z,93.27
2018-12-02T14:12:49.268Z,90.90
2018-12-02T14:15:43.976Z,89.17
2018-12-02T14:18:45.561Z,88.20
2018-12-02T14:21:16.488Z,92.37
2018-12-02T14:23:47.485Z,96.13
2018-12-02T14:26:19.208Z,94.27
2018-12-02T14:29:09.181Z,98.03
2018-12-02T14:31:41.012Z,97.57
2018-12-02T14:34:10.796Z,92.23
2018-12-02T14:36:40.780Z,93.57
2018-12-02T14:39:12.153Z,100.13
2018-12-02T14:41:42.513Z,96.03
2018-12-02T14:44:12.702Z,95.40
2018-12-02T14:46:42.721Z,95.43
2018-12-02T14:49:13.589Z,91.23
2018-12-02T14:51:43.601Z,96.43
2018-12-02T14:54:14.500Z,96.37
2018-12-02T14:56:45.401Z,91.83
2018-12-02T14:59:15.561Z,88.43
2018-12-02T15:01:45.472Z,110.73
2018-12-02T15:04:15.414Z,219.10
2018-12-02T15:06:45.937Z,123.57
2018-12-02T15:09:16.885Z,93.07
2018-12-02T15:11:47.111Z,91.93
2018-12-02T15:14:17.369Z,90.87
2018-12-02T15:16:47.324Z,92.27
2018-12-02T15:19:17.587Z,88.60
2018-12-02T15:21:47.672Z,98.33
2018-12-02T15:24:17.727Z,86.33
2018-12-02T15:26:47.811Z,86.67
2018-12-02T15:29:17.850Z,94.17
2018-12-02T15:31:47.954Z,93.20
2018-12-02T15:34:18.489Z,93.63
2018-12-02T15:36:48.814Z,92.13
2018-12-02T15:39:19.628Z,98.70
2018-12-02T15:41:49.821Z,96.00
2018-12-02T15:44:19.915Z,95.57
2018-12-02T15:46:50.547Z,98.73
2018-12-02T15:49:20.562Z,99.20
2018-12-02T15:51:50.724Z,101.47
2018-12-02T15:54:21.244Z,105.13
2018-12-02T15:56:51.783Z,108.67
2018-12-02T15:59:21.781Z,98.07
2018-12-02T16:01:51.937Z,103.27
2018-12-02T16:04:22.175Z,100.63
2018-12-02T16:06:52.564Z,101.63
2018-12-02T16:09:22.649Z,104.93
2018-12-02T16:11:52.712Z,112.43
2018-12-02T16:14:22.630Z,103.13
2018-12-02T16:16:53.052Z,105.20
2018-12-02T16:19:24.352Z,107.03
2018-12-02T16:21:54.250Z,108.87
2018-12-02T16:24:24.751Z,124.90
2018-12-02T16:26:55.194Z,111.23
2018-12-02T16:29:25.260Z,107.73
2018-12-02T16:31:55.373Z,104.60
2018-12-02T16:34:27.359Z,99.30
2018-12-02T16:36:57.560Z,107.87
2018-12-02T16:39:27.863Z,104.00
2018-12-02T16:41:57.870Z,107.47
2018-12-02T16:44:27.888Z,110.03
2018-12-02T16:46:58.235Z,105.23
2018-12-02T16:49:28.288Z,112.17
2018-12-02T16:51:59.017Z,106.87
2018-12-02T16:54:29.100Z,115.80
2018-12-02T16:56:59.423Z,115.30
2018-12-02T16:59:31.648Z,112.83
2018-12-02T17:02:05.264Z,111.03
2018-12-02T17:04:33.052Z,114.20
2018-12-02T17:07:04.279Z,112.83
2018-12-02T17:09:34.760Z,115.10
2018-12-02T17:12:04.860Z,116.60
2018-12-02T17:14:38.660Z,106.00
2018-12-02T17:17:05.210Z,113.13
2018-12-02T17:19:36.078Z,103.10
2018-12-02T17:22:06.394Z,106.63
2018-12-02T17:24:36.734Z,103.00
2018-12-02T17:27:06.912Z,105.80
2018-12-02T17:29:41.441Z,108.50
2018-12-02T17:32:11.750Z,116.83
2018-12-02T17:34:41.840Z,113.73
2018-12-02T17:37:12.365Z,118.33
2018-12-02T17:39:48.768Z,114.80
2018-12-02T17:42:18.931Z,115.37
2018-12-02T17:44:49.462Z,119.13
2018-12-02T17:47:19.660Z,119.57
2018-12-02T17:49:49.869Z,121.57
2018-12-02T17:52:20.028Z,126.80
2018-12-02T17:54:50.495Z,120.30
2018-12-02T17:57:20.863Z,124.40
2018-12-02T17:59:51.050Z,125.40
2018-12-02T18:02:21.755Z,121.67
2018-12-02T18:04:52.686Z,131.37
2018-12-02T18:07:22.771Z,128.83
2018-12-02T18:09:53.094Z,125.57
2018-12-02T18:12:23.350Z,189.00
2018-12-02T18:14:53.549Z,232.57
2018-12-02T18:17:24.099Z,126.03
2018-12-02T18:19:54.337Z,139.90
2018-12-02T18:22:24.721Z,119.17
2018-12-02T18:24:54.987Z,127.03
2018-12-02T18:27:25.612Z,115.30
2018-12-02T18:29:55.717Z,117.70
2018-12-02T18:32:26.278Z,119.83
2018-12-02T18:34:56.757Z,125.17
2018-12-02T18:37:26.954Z,129.87
2018-12-02T18:39:57.321Z,123.90
2018-12-02T18:42:27.701Z,117.67
2018-12-02T18:44:58.341Z,124.07
2018-12-02T18:47:28.519Z,124.10
2018-12-02T18:49:58.998Z,121.23
2018-12-02T18:52:29.752Z,115.23
2018-12-02T18:54:59.995Z,126.70
2018-12-02T18:57:30.220Z,125.07
2018-12-02T19:00:00.557Z,129.83
2018-12-02T19:02:30.809Z,193.03
2018-12-02T19:05:01.958Z,127.87
2018-12-02T19:07:32.400Z,123.27
2018-12-02T19:10:02.577Z,115.10
2018-12-02T19:12:32.922Z,118.57
2018-12-02T19:15:03.192Z,114.93
2018-12-02T19:17:33.324Z,120.13
2018-12-02T19:20:03.481Z,122.40
2018-12-02T19:22:33.594Z,121.27
2018-12-02T19:25:03.768Z,115.07
2018-12-02T19:27:33.988Z,121.97
2018-12-02T19:30:04.225Z,130.90
2018-12-02T19:32:34.686Z,118.13
2018-12-02T19:35:05.744Z,118.93
2018-12-02T19:37:36.559Z,129.57
2018-12-02T19:40:16.994Z,119.50
2018-12-02T19:42:47.217Z,122.87
2018-12-02T19:45:19.604Z,118.17
2018-12-02T19:47:49.901Z,125.43
2018-12-02T19:50:20.845Z,136.23
2018-12-02T19:52:51.281Z,135.20
2018-12-02T19:55:21.748Z,130.17
2018-12-02T19:57:51.942Z,135.93
2018-12-02T20:00:31.568Z,137.33
2018-12-02T20:03:01.669Z,135.70
2018-12-02T20:05:31.877Z,132.27
2018-12-02T20:08:03.552Z,288.43
2018-12-02T20:10:34.852Z,146.70
2018-12-02T20:13:07.805Z,140.37
2018-12-02T20:15:42.108Z,142.57
2018-12-02T20:18:12.402Z,135.77
2018-12-02T20:20:49.047Z,136.57
2018-12-02T20:23:29.505Z,136.17
2018-12-02T20:26:01.193Z,131.33
2018-12-02T20:28:33.897Z,133.80
2018-12-02T20:31:07.564Z,130.80
2018-12-02T20:33:38.349Z,129.73
2018-12-02T20:36:09.404Z,135.03
2018-12-02T20:38:40.228Z,131.30
2018-12-02T20:41:10.347Z,133.77
2018-12-02T20:43:41.156Z,130.60
2018-12-02T20:46:11.454Z,126.80
2018-12-02T20:48:42.054Z,142.37
2018-12-02T20:51:13.064Z,125.23
2018-12-02T20:53:43.617Z,131.13
2018-12-02T20:56:13.924Z,134.20
2018-12-02T20:58:44.537Z,125.73
2018-12-02T21:01:14.886Z,129.37
2018-12-02T21:03:47.007Z,126.63
2018-12-02T21:06:19.816Z,125.63
2018-12-02T21:08:50.052Z,120.60
2018-12-02T21:11:20.306Z,126.10
2018-12-02T21:13:50.630Z,120.03
2018-12-02T21:16:21.025Z,128.80
2018-12-02T21:18:51.317Z,158.87
2018-12-02T21:21:21.941Z,146.50
2018-12-02T21:23:52.225Z,144.77
2018-12-02T21:26:22.409Z,147.07
2018-12-02T21:28:52.785Z,143.80
2018-12-02T21:31:22.985Z,145.57
2018-12-02T21:33:53.151Z,140.37
2018-12-02T21:36:23.637Z,142.47
2018-12-02T21:38:53.777Z,142.97
2018-12-02T21:41:23.925Z,140.00
2018-12-02T21:43:54.225Z,143.23
2018-12-02T21:46:24.168Z,141.00
2018-12-02T21:48:53.964Z,149.40
2018-12-02T21:51:23.965Z,151.27
2018-12-02T21:53:53.786Z,137.80
2018-12-02T21:56:23.749Z,138.53
2018-12-02T21:58:53.583Z,136.83
2018-12-02T22:01:23.643Z,135.50
2018-12-02T22:03:54.208Z,134.23
2018-12-02T22:06:25.820Z,137.80
2018-12-02T22:08:56.211Z,147.97
2018-12-02T22:11:26.335Z,165.20
2018-12-02T22:13:56.870Z,154.78
2018-12-02T22:16:26.858Z,143.07
2018-12-02T22:18:56.702Z,156.07
2018-12-02T22:21:26.938Z,135.83
2018-12-02T22:24:01.239Z,135.23
2018-12-02T22:26:27.652Z,147.33
2018-12-02T22:28:57.434Z,158.17
2018-12-02T22:31:27.677Z,154.23
2018-12-02T22:33:57.471Z,131.93
2018-12-02T22:36:27.210Z,126.70
2018-12-02T22:38:57.008Z,137.37
2018-12-02T22:41:27.066Z,133.67
2018-12-02T22:43:57.732Z,135.90
2018-12-02T22:46:27.551Z,115.77
2018-12-02T22:48:57.316Z,122.23
2018-12-02T22:51:28.076Z,120.57
2018-12-02T22:53:57.869Z,123.20
2018-12-02T22:56:27.652Z,121.57
2018-12-02T22:58:58.148Z,126.93
2018-12-02T23:01:33.164Z,130.33
2018-12-02T23:04:03.505Z,140.07
2018-12-02T23:06:33.312Z,127.70
2018-12-02T23:09:04.107Z,124.07
2018-12-02T23:11:33.817Z,122.50
2018-12-02T23:14:04.701Z,126.83
2018-12-02T23:16:34.449Z,121.20
2018-12-02T23:19:05.028Z,120.23
2018-12-02T23:21:34.636Z,126.53
2018-12-02T23:24:04.925Z,120.93
2018-12-02T23:26:34.837Z,120.10
2018-12-02T23:29:08.480Z,130.97
2018-12-02T23:31:34.352Z,120.83
2018-12-02T23:34:04.361Z,132.50
2018-12-02T23:36:34.768Z,125.07
2018-12-02T23:39:04.794Z,115.80
2018-12-02T23:41:34.771Z,127.10
2018-12-02T23:44:04.919Z,121.43
2018-12-02T23:46:34.653Z,125.77
2018-12-02T23:49:04.724Z,128.63
2018-12-02T23:51:34.524Z,118.53
2018-12-02T23:54:04.385Z,117.40
2018-12-02T23:56:34.804Z,124.80
2018-12-02T23:59:04.711Z,117.93
